Аэропорт: Кольцово. Екатеринбург

ICAO: USSS

METAR:
2019-09-21 16:00:00
USSS 211600Z 16003MPS 9999 SCT027 08/07 Q1007 R08L/010060 NOSIG RMK QFE735/0980
METAR:
2019-09-21 13:58:00
TAF USSS 211358Z 2115/2215 11003G13MPS 9999 -SHRA BKN011 SCT020CB BECMG 2117/2118 3100 -SHRA FM220300 29003G12MPS 6000 -SHRA BKN011 BKN016CB TEMPO 2205/2212 -TSRA